Time;durP1;ratioP1;P1;durP2;ratioP2;P2;SDS_P1;SDS_P2;PMS_P1;PMS_P2;Temp;Humidity;BMP_temperature;BMP_pressure;BME280_temperature;BME280_humidity;BME280_pressure;Samples;Min_cycle;Max_cycle;Signal;HPM_P1;HPM_P2
2024/01/31 00:01:23;;;;;;;0.47;0.47;;;7.00;73.00;;;;;;5138160;27;20133;-84
2024/01/31 00:03:48;;;;;;;0.20;0.20;;;6.90;60.50;;;;;;5120031;27;20043;-80
2024/01/31 00:06:14;;;;;;;0.20;0.20;;;7.10;66.80;;;;;;5137983;27;20043;-82
2024/01/31 00:08:40;;;;;;;0.65;0.40;;;6.90;69.40;;;;;;5102894;27;20089;-79
2024/01/31 00:11:09;;;;;;;0.30;0.30;;;6.90;60.40;;;;;;5119243;27;20090;-81
2024/01/31 00:13:35;;;;;;;0.20;0.20;;;7.20;60.60;;;;;;5137902;27;20059;-82
2024/01/31 00:16:01;;;;;;;0.20;0.20;;;6.60;69.30;;;;;;5138190;27;20043;-80
2024/01/31 00:18:27;;;;;;;1.80;1.48;;;6.90;72.10;;;;;;5137867;27;20058;-80
2024/01/31 00:20:52;;;;;;;0.25;0.25;;;6.80;65.10;;;;;;5119744;27;20047;-81
2024/01/31 00:23:19;;;;;;;0.10;0.10;;;7.20;64.70;;;;;;5137940;27;20051;-82
2024/01/31 00:25:45;;;;;;;0.20;0.20;;;6.90;61.80;;;;;;5119386;27;20082;-79
2024/01/31 00:28:12;;;;;;;0.52;0.52;;;7.10;60.20;;;;;;5137565;27;20058;-80
2024/01/31 00:30:38;;;;;;;0.20;0.20;;;;;;;;;;5119151;27;20122;-81
2024/01/31 00:33:04;;;;;;;0.20;0.20;;;7.00;43.00;;;;;;5119684;27;20428;-80
2024/01/31 00:35:30;;;;;;;2.63;1.55;;;6.90;39.60;;;;;;5137506;27;20143;-79
2024/01/31 00:37:56;;;;;;;5.03;1.23;;;;;;;;;;5137418;27;20089;-81
2024/01/31 00:40:22;;;;;;;0.20;0.20;;;7.10;34.80;;;;;;5120049;27;20043;-79
2024/01/31 00:42:48;;;;;;;0.40;0.40;;;;;;;;;;5137354;27;20047;-78
2024/01/31 00:45:14;;;;;;;0.20;0.20;;;7.10;12.50;;;;;;5119854;27;20047;-80
2024/01/31 00:47:40;;;;;;;0.20;0.20;;;6.90;12.70;;;;;;5119202;27;20374;-81
2024/01/31 00:50:07;;;;;;;0.20;0.20;;;6.90;16.70;;;;;;5118265;27;20047;-80
2024/01/31 00:52:32;;;;;;;;;;;6.80;9.30;;;;;;5119221;27;20043;-81
2024/01/31 00:54:58;;;;;;;0.20;0.20;;;6.90;1.10;;;;;;5102004;27;20010;-78
2024/01/31 00:57:24;;;;;;;0.20;0.20;;;7.00;1.00;;;;;;5118939;27;20058;-80
2024/01/31 00:59:50;;;;;;;0.20;0.20;;;;;;;;;;5119012;27;20091;-82
2024/01/31 01:02:16;;;;;;;0.20;0.20;;;6.70;1.00;;;;;;5119785;27;20363;-82
2024/01/31 01:04:42;;;;;;;;;;;6.70;1.00;;;;;;5119787;27;20436;-83
2024/01/31 01:07:08;;;;;;;0.20;0.20;;;6.70;1.00;;;;;;5118167;27;19969;-81
2024/01/31 01:09:34;;;;;;;0.20;0.20;;;6.20;1.00;;;;;;5136755;27;20087;-83
2024/01/31 01:12:00;;;;;;;0.20;0.20;;;6.20;1.00;;;;;;5102210;27;20050;-82
2024/01/31 01:14:26;;;;;;;0.20;0.20;;;6.50;1.00;;;;;;5102204;27;20490;-81
2024/01/31 01:16:52;;;;;;;0.20;0.20;;;6.00;1.00;;;;;;5084943;27;20047;-83
2024/01/31 01:19:17;;;;;;;0.20;0.20;;;6.00;1.00;;;;;;5119067;27;20427;-81
2024/01/31 01:21:43;;;;;;;0.10;0.10;;;5.90;1.00;;;;;;5136509;27;20062;-81
2024/01/31 01:24:09;;;;;;;0.52;0.52;;;;;;;;;;5136558;27;20051;-80
2024/01/31 01:26:39;;;;;;;0.30;0.30;;;5.90;1.00;;;;;;5136411;27;20395;-80
2024/01/31 01:29:05;;;;;;;0.30;0.30;;;5.80;4.60;;;;;;5101370;27;20073;-80
2024/01/31 01:31:30;;;;;;;0.10;0.10;;;5.80;7.00;;;;;;5136362;27;20479;-81
2024/01/31 01:33:56;;;;;;;0.20;0.20;;;6.00;5.70;;;;;;5136345;27;20475;-81
2024/01/31 01:36:22;;;;;;;0.20;0.20;;;5.90;8.40;;;;;;5118095;27;20041;-80
2024/01/31 01:38:47;;;;;;;2.03;0.77;;;5.80;6.00;;;;;;5118322;27;20082;-81
2024/01/31 01:41:13;;;;;;;0.20;0.20;;;5.80;3.00;;;;;;5136167;27;20043;-79
2024/01/31 01:43:42;;;;;;;0.47;0.47;;;;;;;;;;5117977;27;20043;-79
2024/01/31 01:46:12;;;;;;;0.20;0.20;;;5.80;1.10;;;;;;5136880;27;20043;-81
2024/01/31 01:48:39;;;;;;;0.20;0.20;;;;;;;;;;5135750;27;20560;-79
2024/01/31 01:51:06;;;;;;;0.50;0.50;;;5.80;1.00;;;;;;5117876;27;20047;-83
2024/01/31 01:53:36;;;;;;;0.10;0.10;;;5.70;1.00;;;;;;5117853;27;20062;-82
2024/01/31 01:56:08;;;;;;;0.20;0.20;;;5.50;1.00;;;;;;5136147;27;20382;-82
2024/01/31 01:58:36;;;;;;;0.10;0.10;;;5.70;1.00;;;;;;5117991;27;20122;-82
2024/01/31 02:01:02;;;;;;;0.38;0.38;;;5.60;1.00;;;;;;5136338;27;20051;-79
2024/01/31 02:03:31;;;;;;;8.80;2.28;;;;;;;;;;5135714;27;20115;-81
2024/01/31 02:05:58;;;;;;;0.10;0.10;;;5.60;1.00;;;;;;5117628;27;20103;-81
2024/01/31 02:08:26;;;;;;;0.20;0.20;;;5.20;1.00;;;;;;5117452;27;20134;-81
2024/01/31 02:10:52;;;;;;;0.20;0.20;;;;;;;;;;5117026;27;20051;-79
2024/01/31 02:13:18;;;;;;;0.20;0.20;;;5.10;1.00;;;;;;5118291;27;20086;-79
2024/01/31 02:15:54;;;;;;;0.20;0.20;;;5.40;1.00;;;;;;5118267;27;20047;-81
2024/01/31 02:18:20;;;;;;;0.20;0.20;;;;;;;;;;5117593;27;20053;-80
2024/01/31 02:20:46;;;;;;;;;;;5.30;1.00;;;;;;5136081;27;20086;-81
2024/01/31 02:23:12;;;;;;;0.20;0.20;;;5.00;1.00;;;;;;5135013;27;20264;-80
2024/01/31 02:25:37;;;;;;;0.10;0.10;;;5.20;1.00;;;;;;5135786;27;20083;-79
2024/01/31 02:28:03;;;;;;;3.00;0.63;;;5.50;1.00;;;;;;5100469;27;20078;-79
2024/01/31 02:30:29;;;;;;;0.22;0.22;;;5.20;1.00;;;;;;5135701;27;20051;-80
2024/01/31 02:32:56;;;;;;;0.10;0.10;;;5.40;1.00;;;;;;5117028;27;20390;-80
2024/01/31 02:35:22;;;;;;;0.20;0.20;;;;;;;;;;5116933;27;20063;-80
2024/01/31 02:37:48;;;;;;;0.20;0.20;;;5.20;1.00;;;;;;5116814;27;20054;-80
2024/01/31 02:40:14;;;;;;;0.20;0.20;;;5.40;1.00;;;;;;5135108;27;20043;-79
2024/01/31 02:42:40;;;;;;;0.20;0.20;;;5.30;1.00;;;;;;5116675;27;20092;-80
2024/01/31 02:45:06;;;;;;;0.20;0.20;;;5.40;1.00;;;;;;5135226;27;20046;-82
2024/01/31 02:47:33;;;;;;;0.35;0.35;;;5.80;1.00;;;;;;5135024;27;20047;-81
2024/01/31 02:49:59;;;;;;;0.20;0.20;;;;;;;;;;5135044;27;20047;-80
2024/01/31 02:52:25;;;;;;;;;;;5.60;1.00;;;;;;5117160;27;20047;-81
2024/01/31 02:54:51;;;;;;;0.20;0.20;;;5.60;1.00;;;;;;5116590;27;19942;-80
2024/01/31 02:57:17;;;;;;;0.20;0.20;;;5.40;1.00;;;;;;5134807;27;20058;-81
2024/01/31 02:59:43;;;;;;;;;;;5.50;1.00;;;;;;5116967;27;20043;-80
2024/01/31 03:02:08;;;;;;;0.98;0.55;;;5.50;1.00;;;;;;5116614;27;19964;-81
2024/01/31 03:04:34;;;;;;;0.20;0.20;;;;;;;;;;5135247;27;20059;-80
2024/01/31 03:07:00;;;;;;;0.20;0.20;;;;;;;;;;5116351;27;20043;-80
2024/01/31 03:09:27;;;;;;;0.20;0.20;;;5.60;1.00;;;;;;5134464;27;20059;-81
2024/01/31 03:11:53;;;;;;;0.20;0.20;;;5.60;1.00;;;;;;5135212;27;20399;-81
2024/01/31 03:14:19;;;;;;;32.22;1.10;;;5.50;1.00;;;;;;5134407;27;20503;-80
2024/01/31 03:16:45;;;;;;;0.20;0.20;;;5.60;1.00;;;;;;5134559;27;20117;-81
2024/01/31 03:19:11;;;;;;;0.17;0.17;;;5.70;1.00;;;;;;5134503;27;20119;-80
2024/01/31 03:21:37;;;;;;;0.68;0.68;;;;;;;;;;5134457;28;20174;-80
2024/01/31 03:24:03;;;;;;;0.20;0.20;;;;;;;;;;5116398;28;20498;-79
2024/01/31 03:26:29;;;;;;;;;;;5.70;1.00;;;;;;5116497;28;20043;-80
2024/01/31 03:28:55;;;;;;;0.20;0.20;;;5.40;1.00;;;;;;5116181;28;19923;-81
2024/01/31 03:31:20;;;;;;;4.18;3.25;;;5.50;1.00;;;;;;5134937;28;20079;-80
2024/01/31 03:33:46;;;;;;;0.47;0.35;;;;;;;;;;5134351;28;20127;-80
2024/01/31 03:36:12;;;;;;;0.20;0.20;;;5.50;1.00;;;;;;5116266;28;20047;-80
2024/01/31 03:38:39;;;;;;;0.20;0.20;;;5.10;1.00;;;;;;5134369;28;20047;-80
2024/01/31 03:41:05;;;;;;;0.20;0.20;;;5.30;1.00;;;;;;5100106;28;20074;-80
2024/01/31 03:43:31;;;;;;;0.45;0.45;;;5.40;1.00;;;;;;5134299;28;20083;-80
2024/01/31 03:45:57;;;;;;;0.20;0.20;;;5.20;1.00;;;;;;5134910;28;20071;-78
2024/01/31 03:48:23;;;;;;;1.17;1.05;;;;;;;;;;5134199;28;20160;-80
2024/01/31 03:50:49;;;;;;;0.20;0.20;;;;;;;;;;5115562;28;20482;-79
2024/01/31 03:53:15;;;;;;;0.20;0.20;;;;;;;;;;5115607;28;20487;-79
2024/01/31 03:55:41;;;;;;;0.20;0.20;;;;;;;;;;5099128;28;20123;-79
2024/01/31 03:58:07;;;;;;;0.20;0.20;;;4.70;1.00;;;;;;5116913;28;20371;-79
2024/01/31 04:00:32;;;;;;;0.28;0.28;;;4.50;1.00;;;;;;5116565;28;20050;-80
2024/01/31 04:02:58;;;;;;;0.20;0.20;;;4.50;1.00;;;;;;5134120;28;20054;-79
2024/01/31 04:05:24;;;;;;;0.20;0.20;;;;;;;;;;5115817;28;20046;-78
2024/01/31 04:07:50;;;;;;;0.20;0.20;;;;;;;;;;5133991;28;20130;-79
2024/01/31 04:10:16;;;;;;;0.75;0.75;;;4.30;1.00;;;;;;5115547;28;20093;-79
2024/01/31 04:12:42;;;;;;;13.75;1.00;;;;;;;;;;5133923;28;20043;-79
2024/01/31 04:15:08;;;;;;;0.20;0.20;;;4.00;1.00;;;;;;5098849;28;20050;-79
2024/01/31 04:17:34;;;;;;;0.20;0.20;;;;;;;;;;5133803;28;20039;-80
2024/01/31 04:20:00;;;;;;;0.20;0.20;;;;;;;;;;5116654;28;20352;-80
2024/01/31 04:22:26;;;;;;;0.43;0.38;;;;;;;;;;5116706;28;20375;-79
2024/01/31 04:24:52;;;;;;;0.20;0.20;;;;;;;;;;5117688;27;20087;-80
2024/01/31 04:27:18;;;;;;;0.30;0.30;;;4.50;1.60;;;;;;5120057;27;20157;-80
2024/01/31 04:29:44;;;;;;;0.10;0.10;;;4.40;1.00;;;;;;5120028;27;20126;-80
2024/01/31 04:32:10;;;;;;;1.27;0.50;;;;;;;;;;5137550;27;20043;-79
2024/01/31 04:34:39;;;;;;;0.20;0.20;;;;;;;;;;5119114;27;20051;-78
2024/01/31 04:37:05;;;;;;;0.20;0.20;;;;;;;;;;5138073;27;20078;-79
2024/01/31 04:39:31;;;;;;;;;;;;;;;;;;5120514;27;20043;-81
2024/01/31 04:41:57;;;;;;;0.20;0.20;;;;;;;;;;5120104;27;19926;-80
2024/01/31 04:44:23;;;;;;;0.22;0.22;;;4.60;1.00;;;;;;5137332;27;20047;-81
2024/01/31 04:46:49;;;;;;;0.55;0.55;;;;;;;;;;5118982;27;20039;-79
2024/01/31 04:49:15;;;;;;;0.10;0.10;;;;;;;;;;5119567;27;20065;-81
2024/01/31 04:51:42;;;;;;;0.20;0.20;;;;;;;;;;5119401;27;20086;-79
2024/01/31 04:54:08;;;;;;;0.20;0.20;;;;;;;;;;5137188;27;20075;-80
2024/01/31 04:56:35;;;;;;;;;;;4.40;1.00;;;;;;5119333;27;20138;-80
2024/01/31 04:59:01;;;;;;;0.32;0.32;;;;;;;;;;5119050;27;19919;-80
2024/01/31 05:01:27;;;;;;;;;;;;;;;;;;5119319;27;20130;-79
2024/01/31 05:03:53;;;;;;;0.20;0.20;;;;;;;;;;5118786;27;20007;-79
2024/01/31 05:06:19;;;;;;;0.30;0.30;;;;;;;;;;5118978;27;20046;-80
2024/01/31 05:08:45;;;;;;;0.20;0.20;;;;;;;;;;5136908;27;20088;-81
2024/01/31 05:11:14;;;;;;;0.20;0.20;;;4.20;1.00;;;;;;5118571;27;20091;-80
2024/01/31 05:13:40;;;;;;;0.20;0.20;;;;;;;;;;5118487;27;20051;-80
2024/01/31 05:16:09;;;;;;;7.82;0.60;;;;;;;;;;5136773;27;20046;-80
2024/01/31 05:18:36;;;;;;;0.20;0.20;;;;;;;;;;5118599;27;20059;-81
2024/01/31 05:21:02;;;;;;;0.20;0.20;;;4.00;1.00;;;;;;5118576;27;20043;-80
2024/01/31 05:23:28;;;;;;;0.20;0.20;;;;;;;;;;5136889;27;20360;-81
2024/01/31 05:25:54;;;;;;;0.13;0.13;;;3.80;7.10;;;;;;5118211;27;20050;-79
2024/01/31 05:28:20;;;;;;;0.20;0.20;;;;;;;;;;5101473;27;20046;-79
2024/01/31 05:30:46;;;;;;;0.20;0.20;;;;;;;;;;5118411;27;20390;-80
2024/01/31 05:33:13;;;;;;;0.50;0.50;;;;;;;;;;5118572;27;20387;-79
2024/01/31 05:35:39;;;;;;;0.20;0.20;;;;;;;;;;5136319;27;20436;-80
2024/01/31 05:38:05;;;;;;;0.20;0.20;;;4.30;15.80;;;;;;5119048;27;20086;-80
2024/01/31 05:40:31;;;;;;;0.20;0.20;;;4.00;18.50;;;;;;5117738;27;20514;-80
2024/01/31 05:42:57;;;;;;;;;;;4.40;19.80;;;;;;5118384;27;20046;-80
2024/01/31 05:45:27;;;;;;;0.10;0.10;;;;;;;;;;5136131;27;20018;-81
2024/01/31 05:47:53;;;;;;;0.20;0.20;;;;;;;;;;5118093;27;20139;-81
2024/01/31 05:50:19;;;;;;;0.22;0.22;;;;;;;;;;5118004;27;20047;-81
2024/01/31 05:52:44;;;;;;;0.20;0.20;;;3.90;15.50;;;;;;5117894;27;20058;-81
2024/01/31 05:55:14;;;;;;;16.08;3.72;;;4.10;15.20;;;;;;5117547;27;20490;-82
2024/01/31 05:57:41;;;;;;;0.20;0.20;;;;;;;;;;5101654;27;20050;-80
2024/01/31 06:00:09;;;;;;;0.20;0.20;;;;;;;;;;5118539;27;20051;-80
2024/01/31 06:02:35;;;;;;;0.30;0.30;;;;;;;;;;5117511;27;20483;-81
2024/01/31 06:05:01;;;;;;;0.30;0.30;;;3.90;16.10;;;;;;5101039;27;20400;-81
2024/01/31 06:07:27;;;;;;;0.20;0.20;;;;;;;;;;5118325;27;20059;-81
2024/01/31 06:09:53;;;;;;;0.20;0.20;;;;;;;;;;5117222;27;20062;-81
2024/01/31 06:12:19;;;;;;;0.20;0.20;;;;;;;;;;5136373;27;20182;-81
2024/01/31 06:14:45;;;;;;;0.20;0.20;;;3.40;18.40;;;;;;5117456;27;20518;-81
2024/01/31 06:17:11;;;;;;;0.20;0.20;;;;;;;;;;5100686;27;20055;-80
2024/01/31 06:19:38;;;;;;;0.45;0.30;;;;;;;;;;5135419;27;20047;-81
2024/01/31 06:22:04;;;;;;;0.20;0.20;;;;;;;;;;5118027;27;20039;-81
2024/01/31 06:24:30;;;;;;;0.25;0.25;;;;;;;;;;5117371;27;20506;-81
2024/01/31 06:26:56;;;;;;;1.75;0.65;;;;;;;;;;5100359;27;20387;-80
2024/01/31 06:29:22;;;;;;;0.20;0.20;;;;;;;;;;5117526;27;20050;-80
2024/01/31 06:31:48;;;;;;;0.22;0.22;;;3.70;29.40;;;;;;5083335;27;20057;-80
2024/01/31 06:34:15;;;;;;;0.20;0.20;;;;;;;;;;5135731;27;20403;-79
2024/01/31 06:36:41;;;;;;;0.77;0.77;;;;;;;;;;5117096;27;20375;-81
2024/01/31 06:39:07;;;;;;;0.10;0.10;;;;;;;;;;5116901;27;20050;-80
2024/01/31 06:41:35;;;;;;;0.13;0.13;;;;;;;;;;5117766;27;20490;-80
2024/01/31 06:44:01;;;;;;;0.20;0.20;;;;;;;;;;5100244;27;20047;-80
2024/01/31 06:46:27;;;;;;;0.55;0.47;;;4.30;44.30;;;;;;5116713;27;20395;-80
2024/01/31 06:48:52;;;;;;;0.20;0.20;;;4.20;44.90;;;;;;5134316;27;20043;-80
2024/01/31 06:51:18;;;;;;;0.30;0.30;;;;;;;;;;5117133;27;20277;-80
2024/01/31 06:53:44;;;;;;;0.40;0.40;;;4.80;43.30;;;;;;5100721;27;20047;-81
2024/01/31 06:56:16;;;;;;;0.15;0.15;;;;;;;;;;5134517;27;20061;-79
2024/01/31 06:58:43;;;;;;;0.20;0.20;;;;;;;;;;5101175;27;20074;-77
2024/01/31 07:01:09;;;;;;;0.50;0.50;;;;;;;;;;5116262;27;20085;-78
2024/01/31 07:03:35;;;;;;;0.20;0.20;;;;;;;;;;5134295;27;20043;-78
2024/01/31 07:06:01;;;;;;;0.20;0.20;;;;;;;;;;5116279;27;20039;-81
2024/01/31 07:08:28;;;;;;;0.10;0.10;;;;;;;;;;5116284;27;20103;-80
2024/01/31 07:10:53;;;;;;;1.35;1.05;;;4.90;2.80;;;;;;5134208;27;20503;-80
2024/01/31 07:13:20;;;;;;;0.30;0.30;;;;;;;;;;5099196;28;20046;-80
2024/01/31 07:15:47;;;;;;;0.20;0.20;;;;;;;;;;5115914;27;20047;-81
2024/01/31 07:18:13;;;;;;;0.30;0.30;;;;;;;;;;5116269;28;20096;-80
2024/01/31 07:20:39;;;;;;;0.30;0.30;;;;;;;;;;5116194;28;20054;-80
2024/01/31 07:23:05;;;;;;;0.30;0.30;;;;;;;;;;5134197;28;20047;-81
2024/01/31 07:25:31;;;;;;;0.50;0.50;;;;;;;;;;5116797;28;20078;-80
2024/01/31 07:27:57;;;;;;;0.30;0.30;;;;;;;;;;5134156;28;20047;-81
2024/01/31 07:30:24;;;;;;;0.40;0.40;;;;;;;;;;5116270;28;20047;-80
2024/01/31 07:32:50;;;;;;;0.25;0.25;;;;;;;;;;5116000;28;20122;-81
2024/01/31 07:35:16;;;;;;;0.45;0.45;;;;;;;;;;5099277;28;20051;-80
2024/01/31 07:37:42;;;;;;;0.30;0.30;;;;;;;;;;5116777;28;20411;-81
2024/01/31 07:40:11;;;;;;;0.30;0.22;;;;;;;;;;5116536;28;20048;-81
2024/01/31 07:42:39;;;;;;;0.40;0.40;;;4.80;1.00;;;;;;5116708;28;20039;-80
2024/01/31 07:45:05;;;;;;;0.20;0.20;;;;;;;;;;5134034;28;20051;-80
2024/01/31 07:47:31;;;;;;;0.20;0.20;;;4.90;1.00;;;;;;5133980;28;20065;-80
2024/01/31 07:49:57;;;;;;;0.65;0.28;;;;;;;;;;5134005;28;20474;-80
2024/01/31 07:52:23;;;;;;;1.65;1.55;;;;;;;;;;5098902;28;20053;-79
2024/01/31 07:54:49;;;;;;;0.40;0.40;;;;;;;;;;5133898;28;20094;-80
2024/01/31 07:57:15;;;;;;;1.15;1.13;;;;;;;;;;5133847;28;20039;-79
2024/01/31 07:59:41;;;;;;;0.28;0.28;;;;;;;;;;5119226;27;20050;-83
2024/01/31 08:02:07;;;;;;;0.50;0.50;;;;;;;;;;5137933;27;20107;-80
2024/01/31 08:04:33;;;;;;;0.52;0.52;;;;;;;;;;5119356;27;20039;-81
2024/01/31 08:06:59;;;;;;;0.20;0.20;;;;;;;;;;5102037;27;20095;-79
2024/01/31 08:09:25;;;;;;;0.38;0.38;;;5.20;1.00;;;;;;5119280;27;20059;-81
2024/01/31 08:11:51;;;;;;;0.20;0.20;;;5.30;1.00;;;;;;5101971;27;20062;-80
2024/01/31 08:14:17;;;;;;;0.38;0.38;;;5.50;1.00;;;;;;5137653;27;20051;-81
2024/01/31 08:16:44;;;;;;;1.65;0.82;;;5.30;1.00;;;;;;5137467;27;20055;-80
2024/01/31 08:19:10;;;;;;;0.40;0.40;;;;;;;;;;5119488;27;20047;-79
2024/01/31 08:21:36;;;;;;;0.47;0.47;;;;;;;;;;5138037;27;20104;-80
2024/01/31 08:24:02;;;;;;;;;;;5.40;1.00;;;;;;5119684;27;20129;-80
2024/01/31 08:26:28;;;;;;;0.57;0.57;;;;;;;;;;5119141;27;20015;-79
2024/01/31 08:28:55;;;;;;;0.40;0.40;;;;;;;;;;5119256;27;20051;-79
2024/01/31 08:31:20;;;;;;;0.52;0.52;;;5.20;1.00;;;;;;5119056;27;20428;-79
2024/01/31 08:33:47;;;;;;;0.40;0.40;;;5.60;1.00;;;;;;5118910;27;20092;-80
2024/01/31 08:36:12;;;;;;;;;;;5.60;1.00;;;;;;5119499;27;20399;-79
2024/01/31 08:38:40;;;;;;;2.72;0.68;;;5.90;1.00;;;;;;5137207;27;19919;-81
2024/01/31 08:41:06;;;;;;;0.73;0.73;;;5.60;1.00;;;;;;5118675;27;20051;-79
2024/01/31 08:43:31;;;;;;;0.50;0.45;;;5.60;1.00;;;;;;5119122;27;20091;-79
2024/01/31 08:45:57;;;;;;;0.50;0.50;;;;;;;;;;5137188;27;20043;-80
2024/01/31 08:48:23;;;;;;;0.30;0.30;;;;;;;;;;5137283;27;20046;-81
2024/01/31 08:50:51;;;;;;;1.00;0.70;;;;;;;;;;5119336;27;20482;-79
2024/01/31 08:53:16;;;;;;;1.05;1.02;;;5.80;1.00;;;;;;5119066;27;20485;-79
2024/01/31 08:55:42;;;;;;;1.02;0.93;;;5.70;1.00;;;;;;5119414;27;20042;-79
2024/01/31 08:58:08;;;;;;;1.73;0.98;;;5.80;1.00;;;;;;5137667;27;20455;-81
2024/01/31 09:00:33;;;;;;;0.30;0.30;;;5.80;1.00;;;;;;5137017;27;20070;-80
2024/01/31 09:03:00;;;;;;;0.68;0.68;;;;;;;;;;5137513;27;20061;-80
2024/01/31 09:05:27;;;;;;;0.50;0.50;;;;;;;;;;5118724;27;20043;-79
2024/01/31 09:07:53;;;;;;;0.85;0.85;;;6.00;1.00;;;;;;5119109;27;20383;-80
2024/01/31 09:10:19;;;;;;;0.30;0.30;;;6.00;1.00;;;;;;5135837;27;20055;-79
2024/01/31 09:12:44;;;;;;;0.75;0.75;;;6.10;1.00;;;;;;5136897;27;20062;-80
2024/01/31 09:15:10;;;;;;;0.68;0.68;;;6.40;1.00;;;;;;5118686;27;20086;-79
2024/01/31 09:17:37;;;;;;;0.57;0.57;;;;;;;;;;5136824;27;20482;-80
2024/01/31 09:20:02;;;;;;;1.83;1.17;;;5.90;1.00;;;;;;5118536;27;20050;-78
2024/01/31 09:22:28;;;;;;;0.55;0.55;;;6.20;1.00;;;;;;5118397;27;20387;-78
2024/01/31 09:24:54;;;;;;;0.98;0.95;;;6.30;1.00;;;;;;5136570;27;20079;-78
2024/01/31 09:27:19;;;;;;;2.40;1.50;;;6.60;1.00;;;;;;5137209;27;20039;-77
2024/01/31 09:29:46;;;;;;;1.42;1.08;;;6.30;1.00;;;;;;5137022;27;20039;-79
2024/01/31 09:32:14;;;;;;;0.80;0.80;;;6.30;1.00;;;;;;5118524;27;20054;-80
2024/01/31 09:34:40;;;;;;;0.82;0.82;;;;;;;;;;5119006;27;20051;-77
2024/01/31 09:37:06;;;;;;;0.60;0.60;;;6.30;1.00;;;;;;5118028;27;20047;-79
2024/01/31 09:39:32;;;;;;;1.70;1.17;;;6.50;1.00;;;;;;5118159;27;20104;-79
2024/01/31 09:41:58;;;;;;;1.05;0.85;;;;;;;;;;5136790;27;20050;-80
2024/01/31 09:44:25;;;;;;;1.73;1.17;;;6.40;1.00;;;;;;5136191;27;20090;-79
2024/01/31 09:46:52;;;;;;;1.83;1.38;;;6.50;1.00;;;;;;5117757;27;20479;-79
2024/01/31 09:49:18;;;;;;;0.98;0.98;;;6.60;1.00;;;;;;5118056;27;20046;-79
2024/01/31 09:51:44;;;;;;;0.93;0.93;;;6.80;1.00;;;;;;5136829;27;20354;-79
2024/01/31 09:54:10;;;;;;;0.93;0.93;;;;;;;;;;5136014;27;20096;-79
2024/01/31 09:56:36;;;;;;;2.05;1.77;;;6.50;1.00;;;;;;5117906;27;20039;-78
2024/01/31 09:59:03;;;;;;;0.70;0.70;;;6.70;1.00;;;;;;5135780;27;20042;-79
2024/01/31 10:01:29;;;;;;;0.98;0.98;;;6.60;1.00;;;;;;5135885;27;20440;-78
2024/01/31 10:03:57;;;;;;;0.85;0.85;;;;;;;;;;5135825;27;20047;-80
2024/01/31 10:06:29;;;;;;;0.82;0.80;;;6.70;1.00;;;;;;5135686;27;20483;-80
2024/01/31 10:08:57;;;;;;;1.05;0.88;;;6.80;1.00;;;;;;5118411;27;20047;-78
2024/01/31 10:11:24;;;;;;;0.63;0.63;;;6.80;1.00;;;;;;5100360;27;20499;-79
2024/01/31 10:13:50;;;;;;;2.33;1.17;;;6.70;1.00;;;;;;5118295;27;20078;-78
2024/01/31 10:16:16;;;;;;;2.65;1.58;;;6.80;1.00;;;;;;5135202;27;20487;-76
2024/01/31 10:18:42;;;;;;;0.75;0.75;;;;;;;;;;5135530;27;20049;-80
2024/01/31 10:21:10;;;;;;;0.85;0.75;;;7.00;1.00;;;;;;5083865;27;20093;-80
2024/01/31 10:23:35;;;;;;;0.82;0.82;;;6.80;1.00;;;;;;5116325;27;20050;-79
2024/01/31 10:26:01;;;;;;;0.50;0.50;;;7.00;1.00;;;;;;5135621;27;20047;-79
2024/01/31 10:28:28;;;;;;;2.60;1.15;;;7.00;1.00;;;;;;5117063;27;20047;-79
2024/01/31 10:30:55;;;;;;;0.80;0.80;;;6.90;1.00;;;;;;5118013;27;20051;-79
2024/01/31 10:33:22;;;;;;;0.63;0.63;;;;;;;;;;5116948;27;20062;-80
2024/01/31 10:35:49;;;;;;;0.85;0.85;;;7.10;1.00;;;;;;5117276;27;20149;-79
2024/01/31 10:38:15;;;;;;;1.45;1.27;;;6.90;1.00;;;;;;5135645;27;20051;-80
2024/01/31 10:40:42;;;;;;;0.90;0.90;;;7.00;1.00;;;;;;5135953;27;20050;-78
2024/01/31 10:43:11;;;;;;;0.50;0.50;;;7.20;1.00;;;;;;5116852;27;20044;-80
2024/01/31 10:45:37;;;;;;;2.95;1.63;;;7.20;1.00;;;;;;5117052;27;20069;-80
2024/01/31 10:48:03;;;;;;;;;;;7.10;1.00;;;;;;5135912;27;20058;-80
2024/01/31 10:50:30;;;;;;;1.42;1.33;;;7.30;1.00;;;;;;5116800;27;19942;-78
2024/01/31 10:52:57;;;;;;;1.25;1.13;;;7.30;1.00;;;;;;5116769;27;20047;-77
2024/01/31 10:55:23;;;;;;;0.82;0.75;;;7.40;1.00;;;;;;5117060;27;20053;-77
2024/01/31 10:57:49;;;;;;;0.55;0.55;;;7.10;1.00;;;;;;5116584;27;20368;-77
2024/01/31 11:00:25;;;;;;;3.92;1.05;;;7.20;1.00;;;;;;5135349;27;20053;-80
2024/01/31 11:02:51;;;;;;;1.17;1.13;;;7.50;1.00;;;;;;5116953;27;20104;-79
2024/01/31 11:05:17;;;;;;;0.63;0.57;;;7.30;1.00;;;;;;5116551;27;20051;-78
2024/01/31 11:07:46;;;;;;;1.58;1.25;;;7.40;1.00;;;;;;5134752;27;20043;-82
2024/01/31 11:10:23;;;;;;;3.53;1.33;;;7.20;1.00;;;;;;5116007;27;20059;-79
2024/01/31 11:13:01;;;;;;;1.30;0.82;;;7.30;1.00;;;;;;5116805;28;20109;-80
2024/01/31 11:15:31;;;;;;;1.20;1.17;;;;;;;;;;5135040;27;20083;-79
2024/01/31 11:18:13;;;;;;;0.55;0.55;;;7.30;1.00;;;;;;5116271;27;20043;-80
2024/01/31 11:20:39;;;;;;;0.85;0.73;;;7.30;1.00;;;;;;5099826;28;20069;-78
2024/01/31 11:23:05;;;;;;;0.55;0.55;;;7.40;1.00;;;;;;5116309;28;20047;-79
2024/01/31 11:25:36;;;;;;;1.10;0.60;;;;;;;;;;5134177;28;20426;-80
2024/01/31 11:28:04;;;;;;;1.00;0.93;;;7.50;1.00;;;;;;5116706;28;20149;-79
2024/01/31 11:30:31;;;;;;;0.90;0.90;;;7.50;1.00;;;;;;5134424;28;20500;-81
2024/01/31 11:32:57;;;;;;;0.47;0.47;;;7.40;1.00;;;;;;5116252;27;20446;-79
2024/01/31 11:35:25;;;;;;;1.13;0.93;;;7.70;1.00;;;;;;5103324;27;20072;-79
2024/01/31 11:37:52;;;;;;;1.23;1.00;;;7.40;1.00;;;;;;5120342;27;20043;-80
2024/01/31 11:40:19;;;;;;;1.08;0.98;;;7.40;1.00;;;;;;5120315;27;20047;-79
2024/01/31 11:42:46;;;;;;;1.15;1.15;;;7.30;1.00;;;;;;5138562;27;20055;-80
2024/01/31 11:45:12;;;;;;;0.50;0.50;;;7.20;1.00;;;;;;5138465;27;20071;-80
2024/01/31 11:47:39;;;;;;;0.20;0.20;;;7.60;1.00;;;;;;5138461;27;20450;-79
2024/01/31 11:50:05;;;;;;;1.20;0.95;;;7.40;1.00;;;;;;5138475;27;20039;-80
2024/01/31 11:52:31;;;;;;;;;;;7.20;1.00;;;;;;5104460;27;20481;-78
2024/01/31 11:54:57;;;;;;;1.30;1.23;;;7.40;1.00;;;;;;5120300;27;19963;-80
2024/01/31 11:57:22;;;;;;;0.85;0.82;;;7.30;1.00;;;;;;5138850;27;20040;-78
2024/01/31 11:59:50;;;;;;;0.40;0.40;;;7.30;1.00;;;;;;5138797;27;20143;-84
2024/01/31 12:02:17;;;;;;;0.80;0.73;;;7.40;1.00;;;;;;5120158;27;20043;-80
2024/01/31 12:04:54;;;;;;;0.77;0.77;;;7.50;1.00;;;;;;5120204;27;20097;-79
2024/01/31 12:07:20;;;;;;;;;;;7.20;1.00;;;;;;5120880;27;20050;-79
2024/01/31 12:09:46;;;;;;;1.55;0.50;;;;;;;;;;5120278;27;19926;-79
2024/01/31 12:12:13;;;;;;;0.82;0.82;;;7.80;1.00;;;;;;5138530;27;20059;-79
2024/01/31 12:14:40;;;;;;;0.55;0.40;;;7.40;1.00;;;;;;5137945;27;20047;-80
2024/01/31 12:17:26;;;;;;;0.40;0.40;;;7.40;1.00;;;;;;5137893;27;20036;-80
2024/01/31 12:20:13;;;;;;;1.05;0.88;;;;;;;;;;5137979;27;20039;-79
2024/01/31 12:22:40;;;;;;;7.13;0.77;;;7.90;1.00;;;;;;5119331;27;20039;-80
2024/01/31 12:25:07;;;;;;;1.65;1.48;;;;;;;;;;5138436;27;20361;-81
2024/01/31 12:27:33;;;;;;;1.38;0.57;;;7.60;1.00;;;;;;5119570;27;20049;-81
2024/01/31 12:29:58;;;;;;;;;;;7.50;1.00;;;;;;5103846;27;20485;-80
2024/01/31 12:32:25;;;;;;;1.13;1.05;;;8.00;1.00;;;;;;5137582;27;19930;-80
2024/01/31 12:34:51;;;;;;;0.40;0.40;;;7.60;1.00;;;;;;5119381;27;20043;-80
2024/01/31 12:37:17;;;;;;;0.93;0.90;;;7.20;1.00;;;;;;5137535;27;20068;-79
2024/01/31 12:39:43;;;;;;;1.77;1.67;;;7.60;1.00;;;;;;5137477;27;20043;-79
2024/01/31 12:42:09;;;;;;;0.22;0.22;;;7.70;1.00;;;;;;5137748;27;20126;-80
2024/01/31 12:44:35;;;;;;;0.90;0.90;;;7.70;1.00;;;;;;5118841;27;20111;-81
2024/01/31 12:47:08;;;;;;;0.47;0.47;;;;;;;;;;5137034;27;20042;-81
2024/01/31 12:49:38;;;;;;;1.55;0.85;;;7.60;1.00;;;;;;5103315;27;20043;-82
2024/01/31 12:52:07;;;;;;;0.70;0.70;;;7.70;1.00;;;;;;5120883;27;20122;-79
2024/01/31 12:54:33;;;;;;;0.40;0.40;;;7.60;1.00;;;;;;5087297;27;20054;-79
2024/01/31 12:57:00;;;;;;;0.68;0.68;;;7.70;1.00;;;;;;5120564;27;20398;-77
2024/01/31 12:59:27;;;;;;;0.30;0.30;;;7.70;1.00;;;;;;5103159;27;20049;-79
2024/01/31 13:01:53;;;;;;;0.52;0.52;;;7.70;1.00;;;;;;5103896;27;20364;-83
2024/01/31 13:04:21;;;;;;;1.83;1.40;;;7.70;1.00;;;;;;5102616;27;20054;-78
2024/01/31 13:06:48;;;;;;;1.10;0.88;;;7.90;1.00;;;;;;5103130;27;20050;-80
2024/01/31 13:09:15;;;;;;;0.50;0.50;;;7.60;1.00;;;;;;5086537;27;20068;-77
2024/01/31 13:11:41;;;;;;;0.80;0.80;;;7.70;1.00;;;;;;5102627;27;20105;-79
2024/01/31 13:14:07;;;;;;;2.08;1.23;;;7.90;1.00;;;;;;5103401;27;20047;-75
2024/01/31 13:16:35;;;;;;;0.52;0.52;;;7.70;1.00;;;;;;5120249;27;20099;-78
2024/01/31 13:19:01;;;;;;;0.65;0.65;;;7.50;1.00;;;;;;5103918;27;20043;-80
2024/01/31 13:21:28;;;;;;;1.58;1.45;;;7.80;1.00;;;;;;5120861;27;20047;-78
2024/01/31 13:23:56;;;;;;;1.00;0.93;;;7.70;1.00;;;;;;5120491;27;20062;-80
2024/01/31 13:26:22;;;;;;;0.88;0.88;;;7.60;1.00;;;;;;5085941;27;20453;-79
2024/01/31 13:28:49;;;;;;;1.02;1.02;;;7.50;1.00;;;;;;5119013;27;20398;-75
2024/01/31 13:31:15;;;;;;;1.48;1.38;;;7.50;1.00;;;;;;5119066;27;20144;-78
2024/01/31 13:33:41;;;;;;;2.50;1.75;;;7.90;1.00;;;;;;5101928;27;20035;-76
2024/01/31 13:36:08;;;;;;;1.17;0.80;;;7.60;1.00;;;;;;5101724;27;20043;-77
2024/01/31 13:38:34;;;;;;;1.95;1.42;;;7.70;1.00;;;;;;5118783;27;20050;-77